Time;durP1;ratioP1;P1;durP2;ratioP2;P2;SDS_P1;SDS_P2;PMS_P1;PMS_P2;Temp;Humidity;BMP_temperature;BMP_pressure;BME280_temperature;BME280_humidity;BME280_pressure;Samples;Min_cycle;Max_cycle;Signal;HPM_P1;HPM_P2
2023/08/16 00:00:31;;;;;;;8.70;5.20;;;;;;;21.66;59.18;100751.77;102769;276;106096;-55
2023/08/16 00:03:34;;;;;;;5.70;4.70;;;;;;;21.64;59.36;100753.52;102762;276;114800;-57
2023/08/16 00:06:20;;;;;;;7.10;4.90;;;;;;;21.65;59.50;100751.33;102808;276;94724;-53
2023/08/16 00:08:58;;;;;;;7.20;5.00;;;;;;;21.65;59.45;100747.64;102600;276;99768;-52
2023/08/16 00:11:37;;;;;;;9.20;6.00;;;;;;;21.65;59.53;100746.88;102771;276;122157;-56
2023/08/16 00:14:19;;;;;;;5.90;5.20;;;;;;;21.67;59.48;100747.33;102764;276;106039;-57
2023/08/16 00:17:00;;;;;;;8.20;5.40;;;;;;;21.66;59.42;100747.04;102765;276;113387;-54
2023/08/16 00:19:44;;;;;;;6.30;4.80;;;;;;;21.64;59.54;100750.64;102771;276;95222;-55
2023/08/16 00:22:24;;;;;;;6.80;4.60;;;;;;;21.64;59.58;100757.04;102788;276;96785;-53
2023/08/16 00:25:01;;;;;;;6.80;5.20;;;;;;;21.60;59.51;100752.56;102741;276;120807;-53
2023/08/16 00:27:44;;;;;;;5.90;5.30;;;;;;;21.56;59.70;100752.63;102784;276;105895;-57
2023/08/16 00:30:23;;;;;;;8.20;4.90;;;;;;;21.50;59.85;100755.28;102775;276;114481;-56
2023/08/16 00:32:59;;;;;;;10.40;5.50;;;;;;;21.38;60.16;100754.01;102624;276;94690;-53
2023/08/16 00:35:39;;;;;;;6.90;5.20;;;;;;;21.26;60.52;100754.07;102837;276;97916;-53
2023/08/16 00:38:16;;;;;;;7.70;5.00;;;;;;;21.15;60.80;100747.84;102801;276;120012;-54
2023/08/16 00:40:55;;;;;;;8.30;4.80;;;;;;;21.09;60.83;100749.29;102819;276;104544;-54
2023/08/16 00:43:32;;;;;;;7.20;5.00;;;;;;;21.02;61.20;100750.64;102802;276;113433;-53
2023/08/16 00:46:13;;;;;;;6.70;5.20;;;;;;;20.97;61.28;100753.84;102815;276;95320;-53
2023/08/16 00:48:49;;;;;;;6.70;5.20;;;;;;;20.92;61.47;100750.73;102764;276;97733;-54
2023/08/16 00:51:26;;;;;;;7.50;4.80;;;;;;;20.86;61.55;100754.46;102774;276;120466;-55
2023/08/16 00:54:04;;;;;;;7.40;5.30;;;;;;;20.79;61.88;100751.20;102819;276;103764;-54
2023/08/16 00:56:41;;;;;;;7.50;5.00;;;;;;;20.73;62.08;100751.60;102799;276;114225;-53
2023/08/16 00:59:22;;;;;;;8.20;5.00;;;;;;;20.68;62.13;100750.63;102739;276;94640;-53
2023/08/16 01:01:58;;;;;;;7.90;5.30;;;;;;;20.60;62.39;100752.67;102794;276;97299;-54
2023/08/16 01:04:35;;;;;;;8.60;5.10;;;;;;;20.52;62.57;100752.75;102763;276;121608;-53
2023/08/16 01:07:14;;;;;;;8.80;4.80;;;;;;;20.44;63.11;100755.85;102796;276;105543;-54
2023/08/16 01:09:50;;;;;;;18.50;5.80;;;;;;;20.38;63.28;100761.05;102776;276;114420;-54
2023/08/16 01:12:38;;;;;;;9.50;5.00;;;;;;;20.33;63.46;100764.16;102751;276;94039;-55
2023/08/16 01:15:22;;;;;;;7.50;5.50;;;;;;;20.25;63.92;100765.11;102741;276;98582;-55
2023/08/16 01:17:59;;;;;;;8.60;5.70;;;;;;;20.18;64.16;100762.19;102775;276;120446;-55
2023/08/16 01:20:39;;;;;;;6.90;5.30;;;;;;;20.07;64.46;100761.33;102738;276;106306;-55
2023/08/16 01:23:31;;;;;;;6.40;5.40;;;;;;;19.95;64.82;100764.34;102781;276;114034;-54
2023/08/16 01:26:15;;;;;;;5.80;5.00;;;;;;;19.87;65.03;100766.32;102565;278;97911;-53
2023/08/16 01:28:53;;;;;;;6.10;5.20;;;;;;;19.77;65.51;100764.02;102730;276;98528;-52
2023/08/16 01:31:31;;;;;;;6.80;5.40;;;;;;;19.68;66.01;100761.67;102765;276;120123;-54
2023/08/16 01:34:10;;;;;;;19.30;6.00;;;;;;;19.63;66.27;100759.08;102735;276;105608;-55
2023/08/16 01:36:45;;;;;;;6.40;5.30;;;;;;;19.55;66.55;100760.86;102742;265;115413;-52
2023/08/16 01:39:20;;;;;;;7.30;5.40;;;;;;;19.50;66.60;100762.17;102753;276;94019;-53
2023/08/16 01:41:59;;;;;;;6.00;5.50;;;;;;;19.46;66.68;100759.30;102712;276;96750;-57
2023/08/16 01:44:38;;;;;;;7.90;5.90;;;;;;;19.37;66.95;100759.58;102742;276;121049;-57
2023/08/16 01:47:17;;;;;;;6.10;5.50;;;;;;;19.30;67.16;100754.12;102709;276;104818;-53
2023/08/16 01:50:00;;;;;;;6.20;5.60;;;;;;;19.28;67.24;100751.99;102719;276;114468;-53
2023/08/16 01:52:45;;;;;;;6.90;5.50;;;;;;;19.28;67.33;100751.94;102726;276;97063;-56
2023/08/16 01:55:31;;;;;;;8.00;5.80;;;;;;;19.32;67.47;100755.89;102738;276;97695;-57
2023/08/16 01:58:07;;;;;;;9.50;5.70;;;;;;;19.32;67.54;100755.27;102746;276;120450;-57
2023/08/16 02:00:47;;;;;;;6.80;5.90;;;;;;;19.31;67.92;100757.81;102715;276;106007;-57
2023/08/16 02:03:24;;;;;;;8.00;6.50;;;;;;;19.29;67.97;100757.67;102797;276;113725;-57
2023/08/16 02:05:59;;;;;;;7.90;6.20;;;;;;;19.28;68.14;100752.75;102814;276;97496;-55
2023/08/16 02:08:33;;;;;;;8.10;5.60;;;;;;;19.31;68.09;100750.64;102789;276;98143;-55
2023/08/16 02:11:11;;;;;;;7.90;6.00;;;;;;;19.34;68.15;100751.05;102803;276;120956;-53
2023/08/16 02:13:53;;;;;;;8.30;5.80;;;;;;;19.40;68.27;100749.69;102815;276;106051;-53
2023/08/16 02:16:29;;;;;;;7.00;5.60;;;;;;;19.44;68.33;100746.98;102816;276;116029;-53
2023/08/16 02:19:05;;;;;;;6.50;5.90;;;;;;;19.50;68.38;100745.02;102825;276;94686;-52
2023/08/16 02:21:42;;;;;;;7.20;6.30;;;;;;;19.55;68.47;100741.92;102835;276;96510;-57
2023/08/16 02:24:22;;;;;;;6.70;5.90;;;;;;;19.59;68.48;100740.02;102758;276;121307;-57
2023/08/16 02:26:58;;;;;;;7.60;6.00;;;;;;;19.58;68.59;100740.86;102828;276;106135;-53
2023/08/16 02:29:35;;;;;;;9.90;5.40;;;;;;;19.58;68.62;100743.06;102808;276;113926;-54
2023/08/16 02:32:14;;;;;;;7.10;5.80;;;;;;;19.59;68.51;100740.72;102805;276;96264;-55
2023/08/16 02:34:49;;;;;;;8.20;6.00;;;;;;;19.61;68.44;100739.09;102782;276;97182;-55
2023/08/16 02:37:27;;;;;;;7.20;5.40;;;;;;;19.60;68.42;100738.63;102807;276;118067;-54
2023/08/16 02:40:08;;;;;;;7.20;5.80;;;;;;;19.55;68.57;100742.73;102799;276;105872;-54
2023/08/16 02:42:50;;;;;;;8.90;6.10;;;;;;;19.49;68.80;100742.30;102790;276;114981;-54
2023/08/16 02:45:32;;;;;;;12.50;6.30;;;;;;;19.47;68.81;100744.66;102770;276;96136;-54
2023/08/16 02:48:09;;;;;;;8.50;6.00;;;;;;;19.53;68.75;100743.02;102796;276;97744;-54
2023/08/16 02:50:49;;;;;;;9.10;6.20;;;;;;;19.59;68.84;100743.54;102797;276;120849;-54
2023/08/16 02:53:30;;;;;;;7.60;6.00;;;;;;;19.67;68.76;100745.24;102837;276;106345;-54
2023/08/16 02:56:09;;;;;;;9.00;6.20;;;;;;;19.74;68.61;100742.70;102755;276;116007;-55
2023/08/16 02:58:51;;;;;;;7.60;5.90;;;;;;;19.83;68.54;100738.71;102770;276;94354;-54
2023/08/16 03:01:28;;;;;;;7.20;5.70;;;;;;;19.91;68.25;100733.16;102814;276;97852;-53
2023/08/16 03:04:08;;;;;;;8.00;5.70;;;;;;;19.94;68.12;100734.11;102788;276;121799;-53
2023/08/16 03:06:46;;;;;;;8.30;5.80;;;;;;;19.95;68.07;100735.99;102827;276;106381;-53
2023/08/16 03:09:26;;;;;;;9.20;6.10;;;;;;;20.00;67.89;100743.98;102782;276;113902;-51
2023/08/16 03:12:01;;;;;;;8.00;5.90;;;;;;;20.04;67.85;100741.45;102813;276;94580;-55
2023/08/16 03:14:36;;;;;;;9.20;6.00;;;;;;;20.04;67.71;100739.52;102334;276;429302;-55
2023/08/16 03:17:14;;;;;;;9.30;6.20;;;;;;;20.02;67.71;100736.79;102786;276;121038;-56
2023/08/16 03:19:50;;;;;;;9.70;5.80;;;;;;;20.01;67.89;100743.32;102810;276;104963;-56
2023/08/16 03:22:29;;;;;;;8.70;5.30;;;;;;;19.99;67.85;100738.73;102565;276;114529;-53
2023/08/16 03:25:06;;;;;;;6.80;6.00;;;;;;;19.97;67.87;100743.54;102758;275;97373;-53
2023/08/16 03:27:42;;;;;;;8.60;6.40;;;;;;;19.96;67.70;100747.53;102780;276;97579;-55
2023/08/16 03:30:17;;;;;;;10.30;5.70;;;;;;;19.98;67.68;100748.33;102796;276;119933;-55
2023/08/16 03:32:59;;;;;;;7.80;6.00;;;;;;;20.04;67.72;100744.20;102794;276;105175;-54
2023/08/16 03:35:34;;;;;;;;;;;;;;;20.06;67.53;100744.06;102782;276;115361;-54
2023/08/16 03:38:13;;;;;;;8.80;6.20;;;;;;;20.08;67.50;100746.74;102801;276;94986;-53
2023/08/16 03:40:54;;;;;;;6.90;5.20;;;;;;;20.09;67.48;100753.08;102782;276;98818;-53
2023/08/16 03:43:31;;;;;;;7.50;5.90;;;;;;;20.11;67.46;100752.35;102600;276;120045;-57
2023/08/16 03:46:08;;;;;;;7.30;5.70;;;;;;;20.10;67.24;100756.81;102824;276;106184;-55
2023/08/16 03:48:49;;;;;;;10.70;6.10;;;;;;;20.06;67.39;100759.86;102728;276;112939;-56
2023/08/16 03:51:23;;;;;;;9.10;5.60;;;;;;;20.09;67.28;100763.80;102758;276;96792;-53
2023/08/16 03:54:01;;;;;;;13.70;6.60;;;;;;;20.12;67.51;100761.76;102762;276;98484;-54
2023/08/16 03:56:41;;;;;;;7.80;5.50;;;;;;;20.16;67.49;100768.29;102750;276;120739;-55
2023/08/16 03:59:18;;;;;;;8.70;5.70;;;;;;;20.18;67.61;100775.64;102755;276;106328;-54
2023/08/16 04:01:57;;;;;;;9.90;5.70;;;;;;;20.17;67.81;100773.38;102794;276;113355;-55
2023/08/16 04:04:38;;;;;;;9.40;5.60;;;;;;;20.18;67.88;100777.39;102773;276;95450;-54
2023/08/16 04:07:16;;;;;;;7.70;5.90;;;;;;;20.17;68.17;100773.59;102735;276;97984;-52
2023/08/16 04:09:57;;;;;;;5.80;5.30;;;;;;;20.09;68.60;100777.77;102693;276;119517;-53
2023/08/16 04:12:33;;;;;;;7.50;6.10;;;;;;;20.04;68.68;100778.09;102761;276;104557;-54
2023/08/16 04:15:11;;;;;;;7.80;5.40;;;;;;;20.00;69.10;100779.21;102704;276;115580;-54
2023/08/16 04:17:47;;;;;;;7.50;5.80;;;;;;;19.89;69.25;100781.34;102741;284;96586;-54
2023/08/16 04:20:26;;;;;;;6.60;5.60;;;;;;;19.81;69.65;100786.65;102723;276;97092;-55
2023/08/16 04:23:01;;;;;;;8.50;6.40;;;;;;;19.77;69.87;100785.29;102821;276;119662;-55
2023/08/16 04:25:38;;;;;;;9.00;5.10;;;;;;;19.77;70.12;100786.75;102780;276;104379;-56
2023/08/16 04:28:22;;;;;;;7.90;5.90;;;;;;;19.81;70.26;100786.89;102746;276;115142;-53
2023/08/16 04:30:57;;;;;;;8.00;6.40;;;;;;;19.88;70.03;100787.38;102759;264;94655;-54
2023/08/16 04:33:32;;;;;;;10.00;6.70;;;;;;;19.93;69.99;100789.74;102610;277;97826;-53
2023/08/16 04:36:07;;;;;;;9.10;6.80;;;;;;;20.00;69.77;100785.67;102815;276;120096;-53
2023/08/16 04:38:43;;;;;;;10.90;6.90;;;;;;;20.05;69.59;100779.50;102818;276;105523;-52
2023/08/16 04:41:22;;;;;;;7.70;6.60;;;;;;;20.15;69.09;100785.67;102842;276;114753;-57
2023/08/16 04:43:58;;;;;;;8.40;6.60;;;;;;;20.26;68.83;100783.68;102811;276;96933;-57
2023/08/16 04:46:35;;;;;;;;;;;;;;;20.53;68.69;100780.38;102824;276;98224;-56
2023/08/16 04:49:12;;;;;;;7.30;5.50;;;;;;;20.99;67.96;100776.02;102773;276;120895;-56
2023/08/16 04:51:51;;;;;;;9.60;6.30;;;;;;;21.77;67.26;100780.48;102753;276;105025;-52
2023/08/16 04:54:36;;;;;;;10.00;6.40;;;;;;;23.19;65.86;100778.98;102712;276;114470;-53
2023/08/16 04:57:17;;;;;;;12.60;6.40;;;;;;;24.97;63.54;100777.59;102739;276;94060;-54
2023/08/16 05:00:01;;;;;;;9.70;6.10;;;;;;;25.95;61.20;100775.84;102758;273;99036;-55
2023/08/16 05:02:42;;;;;;;9.20;6.10;;;;;;;26.34;59.51;100773.89;102696;276;121301;-55
2023/08/16 05:05:21;;;;;;;9.50;5.80;;;;;;;25.92;58.43;100777.23;102731;276;105845;-54
2023/08/16 05:08:00;;;;;;;11.90;6.50;;;;;;;25.47;58.04;100776.30;102713;276;113999;-53
2023/08/16 05:10:39;;;;;;;8.80;6.20;;;;;;;25.15;57.85;100775.14;102728;276;95485;-54
2023/08/16 05:13:17;;;;;;;12.00;8.20;;;;;;;24.87;57.83;100774.63;102777;276;97116;-55
2023/08/16 05:15:57;;;;;;;11.70;7.10;;;;;;;24.68;57.77;100776.73;102725;265;120320;-55
2023/08/16 05:18:34;;;;;;;11.80;7.10;;;;;;;24.65;57.71;100771.74;102742;276;103562;-55
2023/08/16 05:21:16;;;;;;;11.00;7.10;;;;;;;24.68;57.63;100768.21;102726;265;114252;-55
2023/08/16 05:24:01;;;;;;;10.10;7.70;;;;;;;24.84;57.45;100766.44;102702;276;92878;-55
2023/08/16 05:26:47;;;;;;;11.80;7.40;;;;;;;24.88;57.23;100759.59;102765;276;97732;-54
2023/08/16 05:29:24;;;;;;;14.40;6.90;;;;;;;24.86;56.97;100761.41;102746;276;121590;-53
2023/08/16 05:32:04;;;;;;;9.60;7.10;;;;;;;24.94;56.96;100758.44;102784;276;105472;-57
2023/08/16 05:34:41;;;;;;;14.00;7.40;;;;;;;25.18;56.38;100755.41;102743;276;113138;-57
2023/08/16 05:37:20;;;;;;;10.00;7.00;;;;;;;25.48;55.90;100755.73;102856;276;95066;-56
2023/08/16 05:39:56;;;;;;;9.50;6.30;;;;;;;26.17;55.58;100753.88;102786;276;96782;-55
2023/08/16 05:42:39;;;;;;;10.80;6.50;;;;;;;27.90;54.34;100746.66;102843;276;119676;-53
2023/08/16 05:45:21;;;;;;;9.10;5.80;;;;;;;29.93;52.09;100745.11;102805;276;105676;-53
2023/08/16 05:48:01;;;;;;;12.20;6.60;;;;;;;31.50;49.43;100743.75;102808;276;113949;-55
2023/08/16 05:50:41;;;;;;;12.50;6.60;;;;;;;32.65;47.04;100743.14;102807;276;94471;-55
2023/08/16 05:53:22;;;;;;;9.90;5.80;;;;;;;33.71;45.34;100743.23;102819;276;98823;-54
2023/08/16 05:56:00;;;;;;;9.80;6.00;;;;;;;34.51;42.95;100744.44;102774;276;121286;-55
2023/08/16 05:58:40;;;;;;;9.50;5.30;;;;;;;35.21;41.15;100743.09;102760;276;104675;-55
2023/08/16 06:01:18;;;;;;;7.20;5.20;;;;;;;35.72;39.70;100741.39;102805;276;115425;-55
2023/08/16 06:03:58;;;;;;;6.30;4.90;;;;;;;36.33;38.64;100742.09;102741;276;94487;-55
2023/08/16 06:06:40;;;;;;;9.10;5.20;;;;;;;36.82;37.72;100745.59;102800;276;95866;-56
2023/08/16 06:09:17;;;;;;;6.60;5.10;;;;;;;37.18;36.40;100743.19;102762;276;120076;-56
2023/08/16 06:11:53;;;;;;;11.00;5.80;;;;;;;37.83;35.63;100747.58;102870;276;103056;-55
2023/08/16 06:14:30;;;;;;;9.80;5.20;;;;;;;37.80;34.39;100746.66;102792;276;114478;-56
2023/08/16 06:17:09;;;;;;;5.90;4.70;;;;;;;38.20;34.26;100742.32;102812;276;94283;-54
2023/08/16 06:19:53;;;;;;;7.60;5.30;;;;;;;38.74;33.25;100743.52;102785;276;98394;-53
2023/08/16 06:22:38;;;;;;;7.40;4.60;;;;;;;38.88;32.22;100747.56;102821;276;123972;-55
2023/08/16 06:25:23;;;;;;;7.20;5.10;;;;;;;39.43;31.69;100750.31;102735;276;105556;-55
2023/08/16 06:28:04;;;;;;;9.40;4.70;;;;;;;40.05;31.46;100753.80;102818;276;114094;-55
2023/08/16 06:30:45;;;;;;;6.50;4.80;;;;;;;40.39;30.41;100756.48;102791;276;94578;-54
2023/08/16 06:33:22;;;;;;;7.30;5.70;;;;;;;39.63;30.22;100752.73;102773;276;96148;-54
2023/08/16 06:36:04;;;;;;;10.40;5.20;;;;;;;38.32;30.44;100757.84;102777;276;118510;-55
2023/08/16 06:38:43;;;;;;;7.80;4.90;;;;;;;37.34;31.07;100761.86;102832;276;106372;-53
2023/08/16 06:41:25;;;;;;;8.40;5.20;;;;;;;37.77;31.33;100762.08;102801;276;114614;-53
2023/08/16 06:44:07;;;;;;;10.50;5.80;;;;;;;38.48;30.61;100761.55;102777;265;95423;-53
2023/08/16 06:46:45;;;;;;;9.60;6.00;;;;;;;38.68;30.07;100758.97;102811;276;97407;-55
2023/08/16 06:49:25;;;;;;;10.30;5.70;;;;;;;38.52;29.76;100756.01;102796;276;120592;-54
2023/08/16 06:52:09;;;;;;;11.50;6.70;;;;;;;37.84;30.16;100758.96;102814;276;105297;-54
2023/08/16 06:54:48;;;;;;;8.20;5.90;;;;;;;36.42;30.74;100755.40;102747;276;114298;-55
2023/08/16 06:57:24;;;;;;;11.20;6.00;;;;;;;35.20;31.67;100755.31;102890;276;95408;-57
2023/08/16 07:00:04;;;;;;;9.50;6.10;;;;;;;34.29;32.74;100757.50;102856;276;96934;-57
2023/08/16 07:02:42;;;;;;;8.60;5.60;;;;;;;33.78;33.89;100754.87;102808;276;120468;-55
2023/08/16 07:05:24;;;;;;;11.50;5.60;;;;;;;33.38;34.50;100758.12;102765;264;106234;-55
2023/08/16 07:08:01;;;;;;;14.40;6.30;;;;;;;33.10;35.14;100758.85;102811;276;114582;-54
2023/08/16 07:10:37;;;;;;;8.60;5.80;;;;;;;33.07;35.40;100759.34;102814;276;94621;-54
2023/08/16 07:13:13;;;;;;;9.10;5.50;;;;;;;32.92;35.75;100758.17;102855;264;96899;-57
2023/08/16 07:15:53;;;;;;;9.40;6.00;;;;;;;32.62;36.11;100764.75;102827;276;120153;-57
2023/08/16 07:18:33;;;;;;;7.00;5.50;;;;;;;32.93;36.29;100765.02;102820;276;106389;-53
2023/08/16 07:21:14;;;;;;;10.20;6.30;;;;;;;33.72;36.27;100765.55;102807;276;114380;-53
2023/08/16 07:23:50;;;;;;;7.70;5.60;;;;;;;34.65;35.30;100760.33;102803;276;93774;-53
2023/08/16 07:26:29;;;;;;;8.20;5.80;;;;;;;35.93;34.09;100758.43;102845;276;97759;-58
2023/08/16 07:29:17;;;;;;;8.70;5.20;;;;;;;37.08;33.03;100758.75;102841;276;119825;-57
2023/08/16 07:31:55;;;;;;;9.10;5.50;;;;;;;38.24;31.92;100762.98;102867;276;105449;-51
2023/08/16 07:34:36;;;;;;;9.10;5.20;;;;;;;38.33;31.01;100763.45;102728;276;114698;-53
2023/08/16 07:37:17;;;;;;;9.60;4.90;;;;;;;38.20;30.90;100758.53;102744;276;95180;-54
2023/08/16 07:39:56;;;;;;;8.10;5.30;;;;;;;38.25;30.86;100756.39;102770;276;97973;-54
2023/08/16 07:42:37;;;;;;;6.70;5.60;;;;;;;38.44;30.71;100758.80;102776;276;120710;-55
2023/08/16 07:45:22;;;;;;;8.60;5.30;;;;;;;39.59;30.21;100757.73;102739;276;106050;-55
2023/08/16 07:48:04;;;;;;;10.50;5.50;;;;;;;40.61;29.02;100755.36;102764;276;112721;-57
2023/08/16 07:50:43;;;;;;;8.10;4.90;;;;;;;41.24;28.00;100757.52;102845;276;94923;-58
2023/08/16 07:53:22;;;;;;;6.60;5.10;;;;;;;41.73;27.40;100757.82;102794;276;98437;-54
2023/08/16 07:56:02;;;;;;;8.70;5.40;;;;;;;42.22;27.04;100757.05;102757;276;120035;-55
2023/08/16 07:58:39;;;;;;;6.80;5.00;;;;;;;42.65;26.13;100752.80;102753;276;104776;-54
2023/08/16 08:01:17;;;;;;;8.40;5.20;;;;;;;43.02;26.20;100752.67;102767;276;114906;-57
2023/08/16 08:03:57;;;;;;;7.80;5.10;;;;;;;43.34;25.75;100755.83;102792;276;93569;-58
2023/08/16 08:06:36;;;;;;;8.60;5.20;;;;;;;43.46;24.89;100754.23;102795;276;97538;-55
2023/08/16 08:09:10;;;;;;;7.60;5.20;;;;;;;43.60;24.69;100751.08;102785;276;120565;-55
2023/08/16 08:11:52;;;;;;;8.50;5.40;;;;;;;43.86;24.39;100754.70;102563;276;104330;-54
2023/08/16 08:14:31;;;;;;;8.70;5.20;;;;;;;43.68;23.85;100756.14;102743;276;114211;-53
2023/08/16 08:17:07;;;;;;;11.80;5.20;;;;;;;43.36;23.87;100757.93;102809;276;94696;-53
2023/08/16 08:19:47;;;;;;;7.20;5.70;;;;;;;42.92;24.01;100758.23;102726;276;98255;-53
2023/08/16 08:22:26;;;;;;;9.20;5.10;;;;;;;42.93;24.09;100755.48;102739;276;121219;-55
2023/08/16 08:25:09;;;;;;;9.20;5.30;;;;;;;42.85;24.05;100749.98;102718;276;105707;-55
2023/08/16 08:27:45;;;;;;;8.20;5.60;;;;;;;42.70;23.80;100741.13;102716;276;113007;-55
2023/08/16 08:30:29;;;;;;;7.60;4.30;;;;;;;42.47;24.15;100744.72;102683;276;92070;-55
2023/08/16 08:33:16;;;;;;;9.20;5.30;;;;;;;43.12;24.05;100745.40;102846;276;98311;-55
2023/08/16 08:36:11;;;;;;;9.70;4.80;;;;;;;43.45;23.76;100747.23;102765;276;120180;-55
2023/08/16 08:38:49;;;;;;;6.80;4.70;;;;;;;43.31;23.58;100743.29;102763;276;105736;-55
2023/08/16 08:41:33;;;;;;;9.20;5.30;;;;;;;43.20;23.51;100738.45;102824;276;115133;-54
2023/08/16 08:44:09;;;;;;;8.10;4.80;;;;;;;43.41;23.30;100739.73;102801;276;94732;-53
2023/08/16 08:46:54;;;;;;;7.60;4.60;;;;;;;42.80;23.30;100742.89;102885;276;97813;-54
2023/08/16 08:49:35;;;;;;;8.60;5.00;;;;;;;41.75;23.88;100748.89;102767;276;119054;-53
2023/08/16 08:52:16;;;;;;;7.90;5.60;;;;;;;40.76;24.68;100742.55;102770;276;105193;-57
2023/08/16 08:54:55;;;;;;;6.90;4.80;;;;;;;40.39;25.08;100740.52;102817;276;115084;-57
2023/08/16 08:57:39;;;;;;;5.30;4.60;;;;;;;39.70;25.63;100739.83;102733;276;93362;-54
2023/08/16 09:00:27;;;;;;;9.20;5.10;;;;;;;39.40;26.18;100744.20;102719;276;98418;-54
2023/08/16 09:03:07;;;;;;;8.00;4.70;;;;;;;39.67;26.48;100740.35;102793;276;120998;-55
2023/08/16 09:05:57;;;;;;;6.20;5.00;;;;;;;40.52;26.73;100739.33;102742;276;105600;-55
2023/08/16 09:08:36;;;;;;;10.40;5.70;;;;;;;41.44;25.96;100741.38;102758;276;113441;-53
2023/08/16 09:11:13;;;;;;;5.70;4.70;;;;;;;41.95;25.51;100740.33;102737;276;93218;-55
2023/08/16 09:14:02;;;;;;;11.00;5.20;;;;;;;42.11;24.30;100739.66;102496;276;97778;-55
2023/08/16 09:16:40;;;;;;;7.80;5.30;;;;;;;42.19;24.32;100741.92;102768;276;120571;-52
2023/08/16 09:19:21;;;;;;;7.90;6.00;;;;;;;41.79;23.80;100736.13;102741;276;104701;-54
2023/08/16 09:22:02;;;;;;;7.10;5.20;;;;;;;41.56;24.35;100733.07;102749;276;114782;-53
2023/08/16 09:24:43;;;;;;;7.80;4.80;;;;;;;40.78;24.15;100732.67;102733;276;94949;-53
2023/08/16 09:27:28;;;;;;;8.20;4.30;;;;;;;40.07;24.55;100727.32;102823;276;97456;-54
2023/08/16 09:30:14;;;;;;;7.80;4.30;;;;;;;39.65;24.79;100727.47;102783;276;120651;-55
2023/08/16 09:32:53;;;;;;;7.90;5.10;;;;;;;39.21;24.75;100727.09;102939;276;105264;-58
2023/08/16 09:35:40;;;;;;;6.50;4.70;;;;;;;38.86;25.24;100729.91;102904;276;114741;-57
2023/08/16 09:38:21;;;;;;;7.10;4.40;;;;;;;38.61;25.83;100727.58;102814;276;95265;-55
2023/08/16 09:41:01;;;;;;;10.20;5.20;;;;;;;38.33;25.59;100728.05;102785;276;98132;-54
2023/08/16 09:43:39;;;;;;;7.00;4.50;;;;;;;38.19;25.94;100732.70;102791;276;121889;-53
2023/08/16 09:46:25;;;;;;;5.90;5.20;;;;;;;37.81;26.23;100735.37;102834;276;106063;-53
2023/08/16 09:49:08;;;;;;;6.20;4.00;;;;;;;37.42;26.30;100736.23;102797;276;114724;-52
2023/08/16 09:51:49;;;;;;;8.50;5.10;;;;;;;37.21;26.64;100733.71;102796;276;94559;-54
2023/08/16 09:54:35;;;;;;;7.10;4.50;;;;;;;37.06;26.86;100731.84;102816;276;97560;-55
2023/08/16 09:57:12;;;;;;;7.10;4.10;;;;;;;36.94;27.09;100736.38;102806;276;120587;-56
2023/08/16 09:59:54;;;;;;;7.80;4.50;;;;;;;36.90;27.49;100737.20;102788;276;105933;-56
2023/08/16 10:02:29;;;;;;;6.40;4.10;;;;;;;36.85;27.23;100732.79;102793;276;114107;-55
2023/08/16 10:05:15;;;;;;;7.20;4.30;;;;;;;36.64;27.27;100734.50;102769;276;93989;-55
2023/08/16 10:07:56;;;;;;;10.60;4.20;;;;;;;36.54;27.59;100731.92;102798;276;98490;-54
2023/08/16 10:10:34;;;;;;;9.40;4.50;;;;;;;36.65;27.64;100735.73;102759;276;120559;-54
2023/08/16 10:13:14;;;;;;;10.30;4.70;;;;;;;36.68;27.66;100733.56;102781;276;106480;-51
2023/08/16 10:16:03;;;;;;;5.70;4.20;;;;;;;36.78;27.81;100731.77;102759;276;114309;-53
2023/08/16 10:18:42;;;;;;;4.70;4.20;;;;;;;36.83;27.69;100734.25;102882;276;94986;-57
2023/08/16 10:21:21;;;;;;;4.80;3.70;;;;;;;36.81;27.52;100734.11;102937;276;95753;-54
2023/08/16 10:24:01;;;;;;;6.30;4.70;;;;;;;36.84;27.80;100734.86;102801;276;121293;-54
2023/08/16 10:26:45;;;;;;;6.30;3.90;;;;;;;36.78;27.77;100736.38;102614;276;107633;-58
2023/08/16 10:29:36;;;;;;;5.30;4.10;;;;;;;36.75;28.09;100732.09;102857;276;114168;-57
2023/08/16 10:32:18;;;;;;;5.10;4.20;;;;;;;36.62;28.21;100728.79;102868;276;93592;-54
2023/08/16 10:34:59;;;;;;;6.50;4.50;;;;;;;36.67;28.25;100732.98;102782;276;96138;-55
2023/08/16 10:37:35;;;;;;;5.20;3.70;;;;;;;36.77;28.24;100734.07;102858;264;121452;-55
2023/08/16 10:40:25;;;;;;;7.60;4.60;;;;;;;36.96;28.48;100736.19;102816;276;104594;-54
2023/08/16 10:43:08;;;;;;;6.10;4.20;;;;;;;37.05;28.43;100735.50;102823;276;113696;-54
2023/08/16 10:45:56;;;;;;;8.70;4.20;;;;;;;37.12;28.27;100734.75;102816;276;94323;-55
2023/08/16 10:48:38;;;;;;;5.30;3.90;;;;;;;37.03;27.75;100733.41;102792;276;96590;-54
2023/08/16 10:51:16;;;;;;;6.40;3.70;;;;;;;36.95;27.80;100733.91;102826;276;121285;-54
2023/08/16 10:53:56;;;;;;;6.50;4.30;;;;;;;37.11;28.38;100731.16;102796;276;106024;-55
2023/08/16 10:56:47;;;;;;;4.60;3.90;;;;;;;37.17;28.24;100728.04;102810;276;114512;-55
2023/08/16 10:59:36;;;;;;;8.00;4.20;;;;;;;37.23;28.29;100724.73;102784;276;93608;-54
2023/08/16 11:02:19;;;;;;;6.40;4.60;;;;;;;37.25;28.46;100728.83;102810;276;97110;-55
2023/08/16 11:05:03;;;;;;;5.90;4.30;;;;;;;37.24;28.04;100732.09;102777;276;121634;-55
2023/08/16 11:07:46;;;;;;;5.30;4.10;;;;;;;37.23;28.31;100729.81;102819;276;105996;-56
2023/08/16 11:10:36;;;;;;;7.30;3.90;;;;;;;37.12;28.28;100732.73;102761;276;114042;-56
2023/08/16 11:13:18;;;;;;;5.90;4.30;;;;;;;36.69;28.06;100737.15;102437;276;505125;-54
2023/08/16 11:16:09;;;;;;;6.00;4.20;;;;;;;36.38;28.29;100737.35;102817;276;97418;-55
2023/08/16 11:18:51;;;;;;;5.00;4.20;;;;;;;36.42;28.30;100734.83;102782;276;121295;-54
2023/08/16 11:21:29;;;;;;;6.60;4.20;;;;;;;36.41;28.33;100733.51;102824;276;106001;-52
2023/08/16 11:24:05;;;;;;;6.80;4.80;;;;;;;36.34;28.27;100734.48;102764;276;114499;-53
2023/08/16 11:26:46;;;;;;;7.10;4.50;;;;;;;36.36;28.55;100734.70;102777;276;94035;-55
2023/08/16 11:29:23;;;;;;;7.50;4.60;;;;;;;36.45;28.85;100739.42;102786;276;97975;-55
2023/08/16 11:32:05;;;;;;;6.90;4.70;;;;;;;36.36;28.63;100737.93;102816;276;121032;-53
2023/08/16 11:34:44;;;;;;;5.40;4.60;;;;;;;36.13;28.70;100731.66;102765;276;104849;-53
2023/08/16 11:37:26;;;;;;;7.90;4.30;;;;;;;36.09;29.29;100735.02;102777;276;114176;-55
2023/08/16 11:40:09;;;;;;;5.50;4.50;;;;;;;36.21;29.53;100728.90;102795;276;95023;-55
2023/08/16 11:42:50;;;;;;;5.40;4.40;;;;;;;36.38;29.30;100729.80;102782;276;97934;-54
2023/08/16 11:45:29;;;;;;;5.80;4.50;;;;;;;36.49;29.39;100730.23;102543;276;119848;-56
2023/08/16 11:48:08;;;;;;;5.50;4.30;;;;;;;36.41;29.19;100727.96;102633;276;107872;-57
2023/08/16 11:50:45;;;;;;;7.20;5.10;;;;;;;36.39;29.25;100731.27;102826;276;115029;-58
2023/08/16 11:53:34;;;;;;;8.40;4.90;;;;;;;36.35;29.45;100736.53;102825;276;92913;-55
2023/08/16 11:56:12;;;;;;;7.10;4.70;;;;;;;36.30;29.38;100738.54;102774;276;96760;-55
2023/08/16 11:58:50;;;;;;;8.30;4.60;;;;;;;36.52;29.48;100733.61;102738;276;121624;-55
2023/08/16 12:01:31;;;;;;;7.50;5.00;;;;;;;36.83;29.91;100727.42;102740;276;104770;-56
2023/08/16 12:04:12;;;;;;;6.20;5.00;;;;;;;36.96;29.68;100728.06;102769;276;112762;-55
2023/08/16 12:06:56;;;;;;;6.60;4.80;;;;;;;37.00;29.73;100726.65;102735;276;94787;-56
2023/08/16 12:09:53;;;;;;;5.70;4.90;;;;;;;36.94;29.73;100728.65;102711;276;98632;-55
2023/08/16 12:12:43;;;;;;;7.30;4.60;;;;;;;36.86;29.95;100727.59;102777;276;120932;-54
2023/08/16 12:15:28;;;;;;;6.50;4.70;;;;;;;36.77;29.53;100723.36;102787;276;104859;-55
2023/08/16 12:18:09;;;;;;;7.90;4.70;;;;;;;36.61;29.84;100722.35;102847;276;114757;-58